Time;durP1;ratioP1;P1;durP2;ratioP2;P2;SDS_P1;SDS_P2;PMS_P1;PMS_P2;Temp;Humidity;BMP_temperature;BMP_pressure;BME280_temperature;BME280_humidity;BME280_pressure;Samples;Min_cycle;Max_cycle;Signal;HPM_P1;HPM_P2
2021/08/15 00:02:35;;;;;;;;;17.25;14.50;;;;;24.54;45.36;101374.84;4924432;28;45457;-84
2021/08/15 00:05:13;;;;;;;;;20.75;16.75;;;;;24.48;45.68;101368.91;4926674;28;45756;-84
2021/08/15 00:08:09;;;;;;;;;;;;;;;;;;;;;
2021/08/15 00:15:04;;;;;;;;;;;;;;;;;;;;;
2021/08/15 00:21:51;;;;;;;;;;;;;;;;;;;;;
2021/08/15 00:29:00;;;;;;;;;;;;;;;;;;;;;
2021/08/15 00:32:20;;;;;;;;;;;;;;;;;;;;;
2021/08/15 00:53:37;;;;;;;;;14.75;14.25;;;;;23.52;48.50;101348.50;4737566;30;45393;-84
2021/08/15 00:57:05;;;;;;;;;;;;;;;;;;;;;
2021/08/15 01:04:02;;;;;;;;;;;;;;;;;;;;;
2021/08/15 01:07:19;;;;;;;;;;;;;;;;;;;;;
2021/08/15 01:10:55;;;;;;;;;;;;;;;;;;;;;
2021/08/15 01:14:04;;;;;;;;;;;;;;;;;;;;;
2021/08/15 01:17:35;;;;;;;;;;;;;;;;;;;;;
2021/08/15 01:20:31;;;;;;;;;;;;;;;;;;;;;
2021/08/15 01:27:24;;;;;;;;;;;;;;;;;;;;;
2021/08/15 01:30:32;;;;;;;;;;;;;;;;;;;;;
2021/08/15 01:33:45;;;;;;;;;;;;;;;;;;;;;
2021/08/15 01:36:26;;;;;;;;;16.25;12.75;;;;;22.89;50.57;101313.84;4873871;29;67648;-84
2021/08/15 01:39:02;;;;;;;;;13.00;11.00;;;;;22.88;50.51;101321.03;4882320;29;45582;-84
2021/08/15 01:42:04;;;;;;;;;15.50;14.00;;;;;22.86;50.73;101314.84;4876512;29;45603;-84
2021/08/15 01:48:00;;;;;;;;;16.50;16.50;;;;;22.79;50.78;101312.53;4918482;28;45457;-84
2021/08/15 01:51:06;;;;;;;;;17.50;13.75;;;;;22.77;51.11;101315.25;4926258;28;45536;-84
2021/08/15 01:54:43;;;;;;;;;;;;;;;;;;;;;
2021/08/15 01:57:56;;;;;;;;;;;;;;;;;;;;;
2021/08/15 02:01:21;;;;;;;;;;;;;;;;;;;;;
2021/08/15 02:08:16;;;;;;;;;;;;;;;;;;;;;
2021/08/15 02:15:29;;;;;;;;;;;;;;;;;;;;;
2021/08/15 02:29:17;;;;;;;;;;;;;;;;;;;;;
2021/08/15 02:36:00;;;;;;;;;;;;;;;;;;;;;
2021/08/15 02:42:37;;;;;;;;;;;;;;;;;;;;;
2021/08/15 02:45:32;;;;;;;;;14.00;10.00;;;;;22.16;52.68;101250.88;4935549;28;74628;-84
2021/08/15 02:55:30;;;;;;;;;;;;;;;;;;;;;
2021/08/15 03:09:29;;;;;;;;;;;;;;;;;;;;;
2021/08/15 03:12:45;;;;;;;;;;;;;;;;;;;;;
2021/08/15 03:19:09;;;;;;;;;11.00;10.00;;;;;21.90;53.65;101222.56;4834337;29;45517;-85
2021/08/15 03:22:31;;;;;;;;;;;;;;;;;;;;;
2021/08/15 03:25:37;;;;;;;;;;;;;;;;;;;;;
2021/08/15 03:28:17;;;;;;;;;13.00;13.00;;;;;21.86;54.19;101237.00;4937307;28;45936;-84
2021/08/15 03:31:08;;;;;;;;;13.00;11.50;;;;;21.80;53.85;101241.69;4870639;29;45401;-83
2021/08/15 03:34:21;;;;;;;;;;;;;;;;;;;;;
2021/08/15 03:37:20;;;;;;;;;12.00;12.00;;;;;21.74;54.22;101238.41;4931430;28;74060;-84
2021/08/15 03:43:59;;;;;;;;;;;;;;;;;;;;;
2021/08/15 03:49:38;;;;;;;;;11.25;9.50;;;;;21.63;54.34;101238.88;4923253;28;45887;-83
2021/08/15 03:52:16;;;;;;;;;8.75;8.75;;;;;21.52;54.06;101222.38;4945549;28;47530;-84
2021/08/15 03:55:14;;;;;;;;;10.50;9.00;;;;;21.56;54.19;101238.25;4944490;28;45272;-83
2021/08/15 03:58:11;;;;;;;;;10.75;9.75;;;;;21.54;54.48;101233.88;4933085;28;45444;-83
2021/08/15 04:03:39;;;;;;;;;14.00;9.75;;;;;21.53;54.86;101234.81;4937966;28;46136;-83
2021/08/15 04:06:20;;;;;;;;;;;;;;;;;;;;;
2021/08/15 04:09:14;;;;;;;;;11.50;9.75;;;;;21.40;54.97;101229.09;4932572;28;69111;-83
2021/08/15 04:11:50;;;;;;;;;13.50;12.50;;;;;21.35;54.97;101221.19;4927200;28;45840;-83
2021/08/15 04:23:33;;;;;;;;;;;;;;;;;;;;;
2021/08/15 04:26:51;;;;;;;;;12.50;10.25;;;;;21.27;55.38;101204.56;4923593;28;73745;-84
2021/08/15 04:30:10;;;;;;;;;;;;;;;;;;;;;
2021/08/15 04:32:50;;;;;;;;;9.00;8.25;;;;;21.25;55.60;101208.25;4924388;28;68540;-84
2021/08/15 04:35:45;;;;;;;;;12.25;11.75;;;;;21.25;55.84;101211.81;4926249;28;45403;-84
2021/08/15 04:38:39;;;;;;;;;14.25;10.75;;;;;21.25;55.80;101208.25;4911628;28;46932;-83
2021/08/15 04:41:17;;;;;;;;;10.25;7.25;;;;;21.23;55.94;101204.78;4935276;28;45442;-84
2021/08/15 04:44:32;;;;;;;;;;;;;;;;;;;;;
2021/08/15 04:47:13;;;;;;;;;13.50;10.50;;;;;21.14;55.63;101201.56;4925325;28;73008;-83
2021/08/15 04:53:08;;;;;;;;;11.50;10.50;;;;;21.05;55.82;101198.34;4911974;28;45306;-83
2021/08/15 04:55:46;;;;;;;;;;;;;;;;;;;;;
2021/08/15 04:58:57;;;;;;;;;13.25;11.75;;;;;21.01;56.20;101194.94;4923662;28;71414;-83
2021/08/15 05:01:45;;;;;;;;;11.75;9.75;;;;;21.00;56.10;101186.97;4907621;28;47279;-83
2021/08/15 05:07:52;;;;;;;;;12.25;10.75;;;;;21.06;56.21;101208.13;4916643;28;45467;-84
2021/08/15 05:10:59;;;;;;;;;;;;;;;;;;;;;
2021/08/15 05:14:08;;;;;;;;;;;;;;;;;;;;;
2021/08/15 05:19:35;;;;;;;;;11.25;10.50;;;;;20.93;56.56;101194.38;4924286;28;45324;-83
2021/08/15 05:22:29;;;;;;;;;;;;;;;;;;;;;
2021/08/15 05:25:37;;;;;;;;;;;;;;;;;;;;;
2021/08/15 05:28:34;;;;;;;;;9.75;9.75;;;;;20.92;56.65;101187.25;4917525;28;73699;-85
2021/08/15 05:31:27;;;;;;;;;10.00;10.00;;;;;20.95;56.70;101205.00;4927601;28;45426;-84
2021/08/15 05:34:00;;;;;;;;;8.75;8.75;;;;;20.97;56.80;101209.38;4906827;28;45471;-84
2021/08/15 05:36:29;;;;;;;;;10.50;9.50;;;;;20.94;56.76;101196.09;4925315;28;45297;-84
2021/08/15 05:39:27;;;;;;;;;;;;;;;;;;;;;
2021/08/15 05:49:10;;;;;;;;;;;;;;;;;;;;;
2021/08/15 05:57:55;;;;;;;;;9.75;9.75;;;;;20.91;56.53;101190.88;4918366;28;45428;-84
2021/08/15 06:06:11;;;;;;;;;;;;;;;;;;;;;
2021/08/15 06:08:39;;;;;;;;;12.00;10.25;;;;;21.01;56.29;101204.75;4912894;28;73304;-83
2021/08/15 06:11:49;;;;;;;;;9.50;8.50;;;;;20.97;56.64;101205.81;4907054;28;45558;-83
2021/08/15 06:14:22;;;;;;;;;11.25;10.75;;;;;20.97;56.80;101189.75;4924972;28;45418;-82
2021/08/15 06:16:48;;;;;;;;;13.50;11.50;;;;;20.94;57.07;101193.44;4906896;28;45342;-83
2021/08/15 06:19:14;;;;;;;;;16.50;13.25;;;;;20.96;56.96;101196.94;4926759;28;45605;-86
2021/08/15 06:21:39;;;;;;;;;12.25;11.25;;;;;21.03;56.83;101203.75;4923592;28;45448;-84
2021/08/15 06:24:16;;;;;;;;;13.00;12.50;;;;;21.03;57.04;101200.22;4924324;28;45352;-81
2021/08/15 06:26:42;;;;;;;;;9.50;9.25;;;;;21.04;57.20;101201.97;4921749;28;45355;-85
2021/08/15 06:29:07;;;;;;;;;11.00;11.00;;;;;21.08;56.93;101209.81;4925181;28;45508;-83
2021/08/15 06:31:35;;;;;;;;;9.00;8.75;;;;;21.10;56.82;101213.31;4904743;28;47163;-82
2021/08/15 06:34:03;;;;;;;;;9.75;9.25;;;;;21.09;56.94;101205.31;4923077;28;45264;-84
2021/08/15 06:36:29;;;;;;;;;11.50;11.00;;;;;21.17;56.63;101208.59;4909544;28;45433;-86
2021/08/15 06:38:57;;;;;;;;;13.75;12.50;;;;;21.17;56.77;101195.19;4908397;28;45580;-83
2021/08/15 06:41:25;;;;;;;;;14.25;13.00;;;;;21.25;56.76;101205.56;4908933;28;46981;-83
2021/08/15 06:43:50;;;;;;;;;11.50;9.50;;;;;21.23;56.65;101188.72;4914405;28;45455;-84
2021/08/15 06:46:46;;;;;;;;;;;;;;;;;;;;;
2021/08/15 06:49:14;;;;;;;;;12.00;10.25;;;;;21.34;56.58;101198.03;4912357;28;72930;-84
2021/08/15 06:51:45;;;;;;;;;15.00;12.50;;;;;21.38;56.71;101188.09;4911711;28;47274;-80
2021/08/15 06:54:11;;;;;;;;;9.50;8.25;;;;;21.48;56.38;101202.00;4909030;28;45308;-79
2021/08/15 06:56:37;;;;;;;;;10.00;8.50;;;;;21.52;56.55;101204.47;4907954;28;45365;-82
2021/08/15 06:59:02;;;;;;;;;11.25;10.00;;;;;21.53;56.36;101194.63;4908447;28;45333;-81
2021/08/15 07:01:27;;;;;;;;;12.50;11.00;;;;;21.55;56.17;101190.09;4910219;28;47294;-81
2021/08/15 07:03:53;;;;;;;;;13.50;11.25;;;;;21.63;55.91;101198.66;4926029;28;45232;-82
2021/08/15 07:06:18;;;;;;;;;13.00;11.25;;;;;21.67;56.56;101205.63;4925051;28;45596;-81
2021/08/15 07:08:44;;;;;;;;;10.75;10.75;;;;;21.66;56.00;101197.66;4911141;28;45553;-82
2021/08/15 07:11:09;;;;;;;;;10.33;9.33;;;;;21.69;55.81;101202.91;4909772;28;46510;-81
2021/08/15 07:13:34;;;;;;;;;9.75;9.75;;;;;21.79;55.72;101217.66;4925093;28;45431;-82
2021/08/15 07:16:04;;;;;;;;;17.25;11.50;;;;;21.76;55.72;101207.06;4926277;28;45438;-81
2021/08/15 07:18:29;;;;;;;;;13.50;11.25;;;;;21.86;55.92;101213.75;4925563;28;45179;-81
2021/08/15 07:20:58;;;;;;;;;11.75;9.50;;;;;21.86;55.94;101204.84;4924610;28;46569;-81
2021/08/15 07:23:24;;;;;;;;;11.00;10.50;;;;;21.93;55.57;101199.16;4909862;28;45450;-81
2021/08/15 07:26:02;;;;;;;;;10.75;9.25;;;;;22.07;55.44;101203.03;4924635;28;45446;-82
2021/08/15 07:28:39;;;;;;;;;9.33;9.33;;;;;22.16;55.07;101205.28;4907843;28;45447;-87
2021/08/15 07:31:11;;;;;;;;;11.50;10.00;;;;;22.19;55.01;101192.66;4907961;28;45411;-84
2021/08/15 07:33:40;;;;;;;;;13.33;10.00;;;;;22.35;54.88;101203.56;4907831;28;45547;-80
2021/08/15 07:36:05;;;;;;;;;11.75;10.00;;;;;22.41;54.97;101192.56;4899477;28;45461;-88
2021/08/15 07:38:30;;;;;;;;;10.00;9.00;;;;;22.51;54.83;101190.34;4926714;28;45462;-91
2021/08/15 07:40:59;;;;;;;;;8.67;8.00;;;;;22.66;54.45;101200.31;4911882;28;47083;-92
2021/08/15 07:43:25;;;;;;;;;10.67;10.00;;;;;22.69;54.16;101185.88;4906149;28;45608;-90
2021/08/15 07:45:53;;;;;;;;;10.00;9.00;;;;;22.81;54.37;101192.50;4926149;28;45392;-90
2021/08/15 07:48:32;;;;;;;;;10.33;9.00;;;;;22.90;54.00;101194.75;4913063;28;45422;-89
2021/08/15 07:51:13;;;;;;;;;11.50;10.25;;;;;22.95;53.86;101186.47;4927402;28;45312;-93
2021/08/15 07:53:41;;;;;;;;;9.75;9.00;;;;;23.08;54.00;101184.97;4912107;28;45317;-89
2021/08/15 07:56:14;;;;;;;;;8.75;8.75;;;;;23.19;53.89;101190.69;4911663;28;45330;-91
2021/08/15 07:58:42;;;;;;;;;7.00;7.00;;;;;23.30;53.03;101196.38;4909118;28;45175;-91
2021/08/15 08:01:08;;;;;;;;;11.25;10.00;;;;;23.35;52.73;101185.41;4910345;28;46858;-85
2021/08/15 08:03:34;;;;;;;;;8.25;5.75;;;;;23.48;52.36;101185.66;4908357;28;45435;-84
2021/08/15 08:05:59;;;;;;;;;9.25;8.00;;;;;23.58;52.64;101184.25;4911551;28;45435;-83
2021/08/15 08:08:25;;;;;;;;;10.25;9.75;;;;;23.68;51.97;101181.94;4925032;28;45489;-82
2021/08/15 08:10:53;;;;;;;;;12.00;8.67;;;;;23.72;51.67;101187.13;4909069;28;48006;-84
2021/08/15 08:13:44;;;;;;;;;;;;;;;;;;;;;
2021/08/15 08:16:19;;;;;;;;;11.25;10.00;;;;;23.95;51.86;101179.69;4925418;28;68657;-89
2021/08/15 08:19:09;;;;;;;;;9.75;8.50;;;;;24.13;51.17;101184.09;4909158;28;45387;-87
2021/08/15 08:21:35;;;;;;;;;10.00;9.00;;;;;24.18;50.61;101168.56;4914683;28;47322;-84
2021/08/15 08:24:44;;;;;;;;;10.00;10.00;;;;;24.37;50.68;101179.19;4924849;28;45482;-82
2021/08/15 08:27:09;;;;;;;;;13.00;10.00;;;;;24.49;49.96;101174.16;4923941;28;45545;-82
2021/08/15 08:29:35;;;;;;;;;8.67;8.67;;;;;24.61;49.54;101174.31;4907448;28;45421;-82
2021/08/15 08:32:05;;;;;;;;;8.00;8.00;;;;;24.73;49.47;101177.31;4923985;28;45510;-83
2021/08/15 08:34:30;;;;;;;;;9.67;8.33;;;;;24.77;49.44;101179.72;4907751;28;45307;-83
2021/08/15 08:36:56;;;;;;;;;11.00;9.33;;;;;24.83;49.38;101178.50;4924330;28;45249;-83
2021/08/15 08:39:21;;;;;;;;;11.67;9.33;;;;;24.84;49.19;101167.66;4924405;28;45435;-82
2021/08/15 08:41:47;;;;;;;;;8.00;8.00;;;;;24.94;49.13;101172.50;4923082;28;46083;-82
2021/08/15 08:44:13;;;;;;;;;10.33;9.33;;;;;25.03;48.56;101166.59;4911078;28;45229;-83
2021/08/15 08:46:39;;;;;;;;;10.33;10.33;;;;;25.13;48.63;101170.50;4907761;28;45414;-83
2021/08/15 08:49:04;;;;;;;;;11.67;10.00;;;;;25.21;48.73;101168.28;4923254;28;45523;-84
2021/08/15 08:51:30;;;;;;;;;12.75;12.25;;;;;25.32;47.96;101164.09;4907423;28;46346;-82
2021/08/15 08:53:56;;;;;;;;;8.00;7.67;;;;;25.36;48.31;101160.22;4906331;28;45470;-83
2021/08/15 08:56:22;;;;;;;;;10.50;9.75;;;;;25.47;47.98;101161.34;4925110;28;45324;-82
2021/08/15 08:58:49;;;;;;;;;11.00;10.25;;;;;25.53;48.14;101155.59;4916616;28;45697;-81
2021/08/15 09:01:15;;;;;;;;;7.75;7.75;;;;;25.61;47.08;101149.75;4915799;28;46920;-82
2021/08/15 09:03:41;;;;;;;;;6.75;6.75;;;;;25.69;47.27;101151.97;4905971;28;45282;-82
2021/08/15 09:06:24;;;;;;;;;9.75;9.25;;;;;25.77;47.01;101148.78;4923695;28;45232;-82
2021/08/15 09:08:51;;;;;;;;;9.50;8.00;;;;;25.85;46.93;101143.81;4922966;28;45330;-82
2021/08/15 09:11:21;;;;;;;;;10.00;10.00;;;;;26.04;47.10;101147.13;4906157;28;48088;-82
2021/08/15 09:14:07;;;;;;;;;12.50;11.25;;;;;26.20;47.11;101138.94;4905696;28;45589;-81
2021/08/15 09:17:02;;;;;;;;;13.33;10.00;;;;;26.34;46.69;101138.06;4911816;28;45353;-81
2021/08/15 09:19:40;;;;;;;;;10.67;9.00;;;;;26.48;46.68;101138.03;4905866;28;45360;-81
2021/08/15 09:22:24;;;;;;;;;12.67;9.67;;;;;26.59;46.37;101131.97;4905569;28;47414;-82
2021/08/15 09:24:56;;;;;;;;;9.33;9.33;;;;;26.73;45.75;101131.97;4918721;28;45437;-82
2021/08/15 09:27:35;;;;;;;;;11.00;10.75;;;;;26.82;45.81;101128.66;4942344;28;45412;-82
2021/08/15 09:30:08;;;;;;;;;11.50;11.25;;;;;26.93;45.59;101133.34;4925374;28;45256;-80
2021/08/15 09:32:34;;;;;;;;;11.75;10.50;;;;;27.00;45.62;101123.88;4941782;28;46282;-82
2021/08/15 09:35:02;;;;;;;;;11.50;10.50;;;;;27.12;46.00;101122.19;4924887;28;45336;-82
2021/08/15 09:37:36;;;;;;;;;11.00;10.00;;;;;27.21;45.37;101113.50;4912556;28;45308;-83
2021/08/15 09:40:31;;;;;;;;;14.75;13.25;;;;;27.32;45.30;101126.28;4925163;28;45552;-83
2021/08/15 09:42:59;;;;;;;;;11.50;9.75;;;;;27.35;44.68;101115.25;4919765;28;48115;-83
2021/08/15 09:45:52;;;;;;;;;11.00;8.25;;;;;27.36;44.54;101124.22;4938801;28;45427;-83
2021/08/15 09:48:31;;;;;;;;;12.50;10.25;;;;;27.38;44.92;101120.44;4924045;28;45273;-82
2021/08/15 09:51:14;;;;;;;;;14.75;12.00;;;;;27.45;45.07;101118.19;4932771;28;45424;-82
2021/08/15 09:53:41;;;;;;;;;11.75;10.00;;;;;27.52;44.54;101118.63;4924225;28;47238;-85
2021/08/15 09:56:07;;;;;;;;;11.33;10.00;;;;;27.56;44.56;101104.81;4941351;28;46104;-83
2021/08/15 09:58:34;;;;;;;;;10.00;9.00;;;;;27.66;44.43;101108.56;4924460;28;45512;-84
2021/08/15 10:01:03;;;;;;;;;10.00;10.00;;;;;27.80;44.37;101113.06;4926212;28;45971;-84
2021/08/15 10:03:35;;;;;;;;;12.50;11.75;;;;;27.92;44.17;101114.91;4924358;28;46659;-84
2021/08/15 10:06:01;;;;;;;;;7.67;7.67;;;;;27.99;44.16;101099.09;4925771;28;45305;-85
2021/08/15 10:08:28;;;;;;;;;14.75;11.00;;;;;28.10;43.98;101106.47;4922205;28;45517;-86
2021/08/15 10:10:57;;;;;;;;;14.50;14.50;;;;;28.25;43.60;101099.91;4946886;28;45527;-86
2021/08/15 10:13:25;;;;;;;;;13.00;12.75;;;;;28.39;43.90;101098.94;4948698;28;46267;-86
2021/08/15 10:16:00;;;;;;;;;11.00;11.00;;;;;28.52;43.30;101104.31;4932998;28;45271;-87
2021/08/15 10:18:27;;;;;;;;;10.33;9.00;;;;;28.57;43.40;101092.19;4931340;28;45329;-87
2021/08/15 10:21:16;;;;;;;;;11.00;10.00;;;;;28.72;43.04;101092.03;4951612;28;45273;-85
2021/08/15 10:23:43;;;;;;;;;10.50;10.25;;;;;28.80;43.09;101093.19;4948278;28;45793;-87
2021/08/15 10:26:43;;;;;;;;;11.33;9.33;;;;;28.77;43.37;101087.13;4940366;28;45323;-87
2021/08/15 10:29:35;;;;;;;;;13.00;10.00;;;;;28.84;43.13;101082.97;4921646;28;45670;-85
2021/08/15 10:32:21;;;;;;;;;13.00;11.00;;;;;28.98;42.68;101079.22;4939645;28;44828;-84
2021/08/15 10:34:51;;;;;;;;;16.75;13.75;;;;;29.19;42.83;101068.59;4914002;28;47069;-88
2021/08/15 10:37:31;;;;;;;;;9.50;9.25;;;;;29.41;41.84;101073.25;4937482;28;45328;-86
2021/08/15 10:40:03;;;;;;;;;12.00;11.00;;;;;29.52;41.69;101062.41;4929128;28;45451;-87
2021/08/15 10:43:16;;;;;;;;;12.50;12.50;;;;;29.51;40.93;101060.69;4937452;28;45180;-86
2021/08/15 10:46:07;;;;;;;;;9.67;7.33;;;;;29.41;40.70;101051.56;4930958;28;46904;-87
2021/08/15 10:49:03;;;;;;;;;14.00;12.50;;;;;29.51;41.29;101049.84;4928578;28;45428;-87
2021/08/15 10:51:45;;;;;;;;;9.33;8.67;;;;;29.74;40.28;101058.91;4914152;28;45343;-85
2021/08/15 10:54:28;;;;;;;;;9.00;8.67;;;;;29.94;40.14;101051.88;4910874;28;45452;-83
2021/08/15 10:57:03;;;;;;;;;8.33;8.33;;;;;30.11;39.53;101050.50;4911742;28;48125;-83
2021/08/15 10:59:58;;;;;;;;;9.33;8.00;;;;;30.25;37.93;101044.84;4911668;28;45918;-84
2021/08/15 11:02:34;;;;;;;;;8.00;6.67;;;;;30.23;36.96;101040.53;4887459;28;45351;-84
2021/08/15 11:05:10;;;;;;;;;8.00;8.00;;;;;30.18;35.71;101040.00;4931333;28;45232;-84
2021/08/15 11:07:47;;;;;;;;;7.33;7.33;;;;;30.24;37.44;101034.97;4912948;28;47302;-86
2021/08/15 11:10:13;;;;;;;;;7.67;7.67;;;;;30.43;36.28;101037.03;4915253;28;45458;-84
2021/08/15 11:13:18;;;;;;;;;11.67;9.67;;;;;30.64;36.54;101039.81;4927795;28;45295;-83
2021/08/15 11:15:46;;;;;;;;;9.50;9.50;;;;;30.83;35.89;101032.88;4938303;28;45464;-83
2021/08/15 11:18:32;;;;;;;;;7.00;6.67;;;;;30.97;35.69;101030.69;4929367;28;45729;-84
2021/08/15 11:21:21;;;;;;;;;11.00;9.67;;;;;30.99;35.36;101041.44;4911313;28;45725;-84
2021/08/15 11:23:47;;;;;;;;;7.33;6.00;;;;;31.08;35.83;101035.22;4925956;28;45424;-84
2021/08/15 11:26:17;;;;;;;;;10.00;10.00;;;;;31.26;35.60;101032.75;4925104;28;45252;-82
2021/08/15 11:28:43;;;;;;;;;5.00;4.00;;;;;31.31;34.78;101033.22;4907317;28;45728;-83
2021/08/15 11:31:11;;;;;;;;;8.33;8.33;;;;;31.27;34.82;101034.47;4924114;28;45432;-83
2021/08/15 11:33:40;;;;;;;;;9.00;7.67;;;;;31.30;33.64;101028.81;4925128;28;45334;-85
2021/08/15 11:36:18;;;;;;;;;8.00;7.33;;;;;31.38;33.04;101031.75;4925336;28;45427;-84
2021/08/15 11:39:06;;;;;;;;;;;;;;;;;;;;;
2021/08/15 11:41:36;;;;;;;;;7.00;7.00;;;;;31.37;33.63;101019.13;4923477;28;72725;-83
2021/08/15 11:44:02;;;;;;;;;9.00;9.00;;;;;31.31;32.06;101033.22;4911442;28;45647;-82
2021/08/15 11:46:29;;;;;;;;;8.25;7.75;;;;;31.41;32.19;101025.19;4907093;28;45711;-82
2021/08/15 11:48:54;;;;;;;;;7.00;4.50;;;;;31.42;32.14;101016.84;4924091;28;46166;-82
2021/08/15 11:51:22;;;;;;;;;8.33;8.00;;;;;31.36;32.28;101017.38;4923921;28;45461;-81
2021/08/15 11:53:48;;;;;;;;;6.00;6.00;;;;;31.41;32.44;101019.72;4924272;28;45244;-82
2021/08/15 11:56:22;;;;;;;;;6.50;6.50;;;;;31.40;32.43;101020.72;4907297;28;45245;-83
2021/08/15 11:58:50;;;;;;;;;7.67;7.67;;;;;31.51;32.91;101014.31;4907722;28;47538;-83
2021/08/15 12:01:20;;;;;;;;;8.00;6.67;;;;;31.67;32.23;101011.09;4908313;28;45471;-83
2021/08/15 12:03:59;;;;;;;;;6.00;5.67;;;;;31.68;31.66;101018.25;4926446;28;45301;-82
2021/08/15 12:06:25;;;;;;;;;5.00;5.00;;;;;31.64;31.53;101004.94;4907870;28;45433;-84
2021/08/15 12:08:50;;;;;;;;;7.67;7.00;;;;;31.59;31.12;101019.94;4925603;28;46326;-84
2021/08/15 12:11:36;;;;;;;;;9.25;7.00;;;;;31.37;31.83;101024.56;4924542;28;45474;-86
2021/08/15 12:14:13;;;;;;;;;3.00;3.00;;;;;31.32;31.72;101026.78;4909023;28;45390;-88
2021/08/15 12:16:55;;;;;;;;;9.00;7.67;;;;;31.35;32.28;101002.03;4911895;28;45369;-83
2021/08/15 12:19:26;;;;;;;;;7.00;7.00;;;;;31.70;31.97;101003.53;4924721;28;46089;-87
2021/08/15 12:21:55;;;;;;;;;8.33;8.33;;;;;31.89;31.70;101005.50;4924296;28;45335;-87
2021/08/15 12:24:55;;;;;;;;;7.50;7.00;;;;;31.88;31.11;101006.47;4913667;28;45412;-86
2021/08/15 12:30:49;;;;;;;;;8.25;7.25;;;;;31.91;30.50;100998.03;4945515;28;45703;-82
2021/08/15 12:33:33;;;;;;;;;7.00;5.33;;;;;32.02;30.68;100986.19;4926897;28;45665;-86
2021/08/15 12:36:26;;;;;;;;;23.00;20.25;;;;;32.18;31.12;100996.56;4924950;28;45528;-84
2021/08/15 12:39:24;;;;;;;;;7.75;7.75;;;;;32.31;30.67;100991.72;4927528;28;45244;-83
2021/08/15 12:41:58;;;;;;;;;4.00;4.00;;;;;32.25;29.55;100998.59;4945056;28;46882;-84
2021/08/15 12:44:27;;;;;;;;;8.33;6.00;;;;;32.24;30.05;100994.16;4932905;28;44804;-82
2021/08/15 12:47:09;;;;;;;;;6.33;6.33;;;;;32.42;29.82;100994.28;4944342;28;45343;-83
2021/08/15 12:49:48;;;;;;;;;4.50;4.50;;;;;32.51;29.98;100992.66;4943184;28;45465;-81
2021/08/15 12:52:23;;;;;;;;;9.00;7.67;;;;;32.58;30.10;100976.56;4927065;28;47475;-82
2021/08/15 12:55:16;;;;;;;;;6.00;5.00;;;;;32.55;29.57;100985.88;4925501;28;45697;-82
2021/08/15 12:58:06;;;;;;;;;8.25;7.75;;;;;32.33;29.99;100970.63;4926606;28;45375;-82
2021/08/15 13:00:36;;;;;;;;;8.50;8.50;;;;;32.32;29.87;100970.75;4943552;28;45613;-83
2021/08/15 13:03:07;;;;;;;;;6.25;6.00;;;;;32.36;30.15;100980.38;4925422;28;48203;-83
2021/08/15 13:05:37;;;;;;;;;6.50;6.25;;;;;32.42;30.15;100953.41;4942967;28;45240;-83
2021/08/15 13:08:08;;;;;;;;;11.00;7.00;;;;;32.63;30.45;100955.19;4943112;28;45521;-84
2021/08/15 13:10:36;;;;;;;;;8.25;7.75;;;;;32.88;30.82;100959.16;4925260;28;45294;-83
2021/08/15 13:13:14;;;;;;;;;7.25;5.75;;;;;33.01;30.18;100961.63;4941663;28;46548;-83
2021/08/15 13:15:50;;;;;;;;;6.00;5.00;;;;;33.09;30.21;100951.72;4943009;28;45269;-83
2021/08/15 13:18:29;;;;;;;;;;;;;;;;;;;;;
2021/08/15 13:21:17;;;;;;;;;;;;;;;;;;;;;
2021/08/15 13:23:42;;;;;;;;;9.00;7.00;;;;;33.65;29.82;100933.56;4938822;28;75195;-83
2021/08/15 13:26:09;;;;;;;;;9.75;7.00;;;;;33.67;29.26;100936.16;4902474;28;45427;-80
2021/08/15 13:28:35;;;;;;;;;5.75;5.75;;;;;33.65;29.06;100935.44;4903410;28;45401;-79
2021/08/15 13:31:00;;;;;;;;;5.75;5.75;;;;;33.59;29.55;100921.38;4903966;28;45507;-81
2021/08/15 13:33:36;;;;;;;;;7.50;7.25;;;;;33.53;29.04;100932.94;4921117;28;45445;-82
2021/08/15 13:36:01;;;;;;;;;8.00;8.00;;;;;33.39;29.35;100930.66;4903429;28;45459;-82
2021/08/15 13:38:34;;;;;;;;;5.50;5.25;;;;;33.21;29.24;100927.84;4919560;28;45231;-80
2021/08/15 13:41:00;;;;;;;;;7.00;7.00;;;;;33.08;30.36;100910.94;4921701;28;45791;-80
2021/08/15 13:43:25;;;;;;;;;9.00;9.00;;;;;33.02;29.93;100914.25;4903317;28;47089;-80
2021/08/15 13:45:53;;;;;;;;;6.75;6.75;;;;;32.88;30.28;100913.69;4903410;28;45343;-81
2021/08/15 13:48:18;;;;;;;;;9.25;7.75;;;;;32.86;29.81;100917.56;4904350;28;45445;-82
2021/08/15 13:50:44;;;;;;;;;6.00;5.00;;;;;32.72;30.72;100916.16;4904206;28;45380;-81
2021/08/15 13:53:16;;;;;;;;;7.00;6.00;;;;;32.58;30.61;100900.22;4903124;28;46971;-82
2021/08/15 13:55:42;;;;;;;;;6.75;6.75;;;;;32.38;31.15;100899.34;4903571;28;45752;-82
2021/08/15 13:58:09;;;;;;;;;6.00;5.25;;;;;32.25;30.83;100905.06;4904199;28;45429;-80
2021/08/15 14:00:36;;;;;;;;;7.67;6.33;;;;;32.14;31.00;100907.94;4904125;28;45941;-81
2021/08/15 14:03:10;;;;;;;;;9.25;6.50;;;;;32.03;31.59;100907.06;4903742;28;47332;-84
2021/08/15 14:05:36;;;;;;;;;7.50;6.75;;;;;32.00;31.59;100909.22;4904656;28;45613;-82
2021/08/15 14:08:02;;;;;;;;;7.00;7.00;;;;;32.17;31.20;100905.78;4910990;28;45393;-79
2021/08/15 14:10:28;;;;;;;;;6.25;5.75;;;;;32.30;31.25;100891.88;4900864;28;45682;-78
2021/08/15 14:12:53;;;;;;;;;4.00;4.00;;;;;32.47;31.23;100896.63;4917795;28;48180;-78
2021/08/15 14:15:19;;;;;;;;;6.50;6.50;;;;;32.49;30.82;100896.50;4920882;28;45340;-79
2021/08/15 14:17:45;;;;;;;;;4.75;4.00;;;;;32.43;31.03;100891.59;4902864;28;45330;-84
2021/08/15 14:20:14;;;;;;;;;7.00;7.00;;;;;32.44;31.25;100890.59;4920920;28;45597;-81
2021/08/15 14:22:39;;;;;;;;;6.00;6.00;;;;;32.59;32.16;100878.28;4904283;28;47569;-81
2021/08/15 14:25:16;;;;;;;;;;;;;;;;;;;;;
2021/08/15 14:27:44;;;;;;;;;5.50;5.00;;;;;32.81;31.16;100881.69;4938535;28;69282;-81
2021/08/15 14:30:10;;;;;;;;;8.50;7.75;;;;;32.98;31.28;100880.06;4921591;28;45485;-81
2021/08/15 14:32:36;;;;;;;;;4.00;4.00;;;;;33.15;30.75;100868.41;4936127;28;46198;-81
2021/08/15 14:35:04;;;;;;;;;11.00;7.75;;;;;33.30;30.22;100866.88;4921844;28;45559;-79
2021/08/15 14:37:29;;;;;;;;;7.75;6.75;;;;;33.38;29.75;100868.88;4937783;28;45433;-83
2021/08/15 14:39:58;;;;;;;;;8.00;8.00;;;;;33.15;29.99;100866.53;4921816;28;45506;-83
2021/08/15 14:42:24;;;;;;;;;6.50;6.50;;;;;33.21;29.80;100862.34;4919527;28;47055;-80
2021/08/15 14:44:49;;;;;;;;;7.25;6.50;;;;;33.29;29.94;100857.00;4925571;28;45548;-82
2021/08/15 14:47:15;;;;;;;;;6.00;5.00;;;;;33.40;29.41;100866.84;4950031;28;45426;-80
2021/08/15 14:49:40;;;;;;;;;8.25;7.50;;;;;33.47;29.62;100859.78;4940581;28;45323;-79
2021/08/15 14:52:06;;;;;;;;;8.00;6.00;;;;;33.44;29.45;100854.63;4945930;28;45412;-82
2021/08/15 14:54:32;;;;;;;;;10.25;7.75;;;;;33.44;30.03;100854.63;4948220;28;45393;-81
2021/08/15 14:56:59;;;;;;;;;9.00;9.00;;;;;33.51;29.20;100850.25;4947307;28;45340;-81
2021/08/15 14:59:24;;;;;;;;;9.75;8.75;;;;;33.60;29.08;100845.78;4928368;28;45514;-79
2021/08/15 15:01:50;;;;;;;;;5.75;5.75;;;;;33.72;29.72;100846.44;4932743;28;47168;-79
2021/08/15 15:04:15;;;;;;;;;7.50;7.50;;;;;33.84;29.60;100847.94;4935185;28;45700;-78
2021/08/15 15:06:41;;;;;;;;;5.25;5.00;;;;;33.93;29.63;100857.09;4929257;28;45396;-80
2021/08/15 15:09:06;;;;;;;;;8.00;8.00;;;;;34.00;28.71;100853.59;4927268;28;45464;-78
2021/08/15 15:11:32;;;;;;;;;7.50;6.00;;;;;33.95;29.14;100835.91;4941622;28;47253;-79
2021/08/15 15:13:57;;;;;;;;;8.00;8.00;;;;;33.92;28.84;100852.63;4945062;28;45445;-78
2021/08/15 15:16:22;;;;;;;;;8.00;8.00;;;;;33.94;28.78;100831.47;4946980;28;45358;-78
2021/08/15 15:18:48;;;;;;;;;8.00;5.75;;;;;33.89;29.32;100839.28;4937747;28;45270;-78
2021/08/15 15:21:13;;;;;;;;;7.00;7.00;;;;;33.88;29.35;100838.41;4933946;28;48193;-82
2021/08/15 15:23:39;;;;;;;;;3.33;3.33;;;;;33.85;29.26;100840.63;4929079;28;45459;-78
2021/08/15 15:26:04;;;;;;;;;7.25;7.00;;;;;33.90;29.67;100836.41;4908677;28;45433;-83
2021/08/15 15:28:30;;;;;;;;;6.75;6.75;;;;;33.97;29.40;100833.88;4908235;28;45577;-77
2021/08/15 15:30:56;;;;;;;;;5.50;5.25;;;;;34.06;28.86;100851.28;4912491;28;47217;-79
2021/08/15 15:33:21;;;;;;;;;6.00;5.75;;;;;33.90;29.00;100841.88;4909931;28;45516;-80
2021/08/15 15:35:47;;;;;;;;;5.25;5.00;;;;;33.88;29.56;100845.78;4930774;28;45214;-78
2021/08/15 15:38:13;;;;;;;;;9.75;8.00;;;;;33.95;29.85;100841.38;4927279;28;45340;-79